Aérodrome :
LOGIN :

S'inscrire | Disclaimer

   EN    FR    IT 

 










Légende :    VFR   VFR Marginal   IFR   IFR Intensif   IFR Très Intensif
Visi : 
Plafond : 
>= 8 km
>= 3000ft
5 à 8 km
1000 à 3000 ft
1500m à 5 km
500 à 1000 ft
800 à 1500m
200 à 500 ft
< 800m
< 200 ft
Symboles :   Orages  Brouillard  Fortes neiges  Fortes précipitations  Vent > 20 kt
SIGMETs :   Divers  Orages  Givrage  Turbulence  Onde Orograph.  Cendres Volcan.






- Altitude de l'aérodrome : 200 ft
- Code IATA : TCE


LRTC - Tulcea

DERNIER METAR :
  • 060230Z AUTO 34013KT 9999 NCD 02/M08 Q1032

METARs EXPIRÉS :
  • 060200Z AUTO 34011KT 9999 NCD 01/M07 Q1031
  • 060130Z AUTO 35011KT 9999 NCD 02/M08 Q1031
  • 060100Z AUTO 35010KT 9999 NCD 03/M08 Q1031
  • 060030Z AUTO 36012KT 9999 NCD 03/M08 Q1031
  • 060000Z AUTO 36010KT 9999 NCD 04/M08 Q1031

TAF TAF LRTC
Valide du 06 à 03h jusqu'au 06 à 12h UTC


060200Z 0603/0612 35010KT CAVOK
BECMG 0605/0607 06014KT



MET'MAP, la Météo Aéronautique d'un coup d'oeil ! - Copyright ORBIFLY Décembre 2007 - Disclaimer

ORBIFLY MET'MAP TEAM :

Programmation & Développement : Alexandra Zaïnal
Sur une idée originale de : Baudouin d'Aumeries
Assistance à la programmation : Marc-Olivier Méhu
Soutien technique & logistique : Manuel Goepfert

Contact : metmap@orbifly.com




SOURCES & CREDITS :

   NOAA